createdAt,value
2023-04-26T00:01:14.795Z,3.15
2023-04-26T00:04:17.355Z,6.65
2023-04-26T00:07:20.230Z,5.57
2023-04-26T00:10:22.900Z,7.65
2023-04-26T00:13:25.236Z,8.05
2023-04-26T00:16:27.309Z,8.15
2023-04-26T00:19:29.371Z,5.97
2023-04-26T00:22:31.568Z,5.03
2023-04-26T00:25:33.552Z,3.63
2023-04-26T00:28:35.831Z,3.72
2023-04-26T00:31:38.182Z,5.93
2023-04-26T00:34:40.561Z,8.45
2023-04-26T00:37:42.701Z,4.70
2023-04-26T00:40:44.734Z,3.97
2023-04-26T00:43:46.995Z,5.05
2023-04-26T00:46:51.710Z,4.70
2023-04-26T00:49:53.758Z,5.63
2023-04-26T00:52:57.641Z,5.25
2023-04-26T00:56:00.082Z,6.18
2023-04-26T00:59:03.293Z,7.20
2023-04-26T01:02:05.713Z,7.07
2023-04-26T01:05:09.283Z,10.88
2023-04-26T01:08:11.814Z,6.50
2023-04-26T01:11:15.256Z,9.68
2023-04-26T01:14:18.090Z,8.27
2023-04-26T01:17:20.238Z,6.97
2023-04-26T01:20:22.472Z,6.35
2023-04-26T01:23:25.109Z,5.22
2023-04-26T01:26:27.320Z,7.10
2023-04-26T01:29:30.392Z,6.20
2023-04-26T01:32:32.481Z,6.60
2023-04-26T01:35:34.564Z,7.82
2023-04-26T01:38:36.809Z,8.63
2023-04-26T01:41:38.887Z,6.25
2023-04-26T01:44:41.137Z,7.47
2023-04-26T01:47:43.358Z,7.57
2023-04-26T01:50:45.822Z,8.25
2023-04-26T01:53:48.509Z,8.70
2023-04-26T01:56:50.796Z,7.15
2023-04-26T01:59:54.269Z,8.48
2023-04-26T02:02:57.224Z,7.28
2023-04-26T02:05:59.345Z,7.50
2023-04-26T02:09:01.728Z,9.32
2023-04-26T02:12:05.199Z,9.30
2023-04-26T02:15:09.224Z,12.48
2023-04-26T02:18:11.693Z,9.07
2023-04-26T02:21:16.548Z,9.68
2023-04-26T02:24:19.151Z,12.10
2023-04-26T02:27:21.200Z,9.38
2023-04-26T02:30:24.135Z,10.18
2023-04-26T02:33:26.467Z,13.02
2023-04-26T02:36:29.022Z,13.43
2023-04-26T02:39:31.626Z,14.35
2023-04-26T02:42:33.735Z,14.60
2023-04-26T02:45:42.006Z,18.30
2023-04-26T02:48:44.480Z,19.27
2023-04-26T02:51:46.630Z,28.05
2023-04-26T02:54:48.806Z,15.82
2023-04-26T02:57:50.933Z,13.95
2023-04-26T03:00:54.750Z,10.15
2023-04-26T03:03:57.116Z,12.90
2023-04-26T03:06:59.445Z,10.32
2023-04-26T03:10:02.228Z,12.60
2023-04-26T03:13:07.573Z,14.38
2023-04-26T03:16:09.804Z,10.98
2023-04-26T03:19:11.900Z,9.68
2023-04-26T03:22:16.493Z,11.50
2023-04-26T03:25:18.875Z,12.93
2023-04-26T03:28:21.559Z,12.73
2023-04-26T03:31:24.194Z,11.50
2023-04-26T03:34:27.468Z,10.80
2023-04-26T03:37:29.539Z,11.73
2023-04-26T03:40:31.903Z,12.77
2023-04-26T03:43:34.193Z,13.20
2023-04-26T03:46:36.228Z,10.30
2023-04-26T03:49:38.304Z,10.23
2023-04-26T03:52:40.646Z,10.57
2023-04-26T03:55:42.693Z,14.65
2023-04-26T03:58:44.843Z,12.63
2023-04-26T04:01:46.947Z,15.93
2023-04-26T04:04:49.272Z,11.70
2023-04-26T04:07:52.234Z,10.30
2023-04-26T04:10:54.293Z,12.38
2023-04-26T04:13:56.484Z,11.40
2023-04-26T04:16:59.712Z,13.68
2023-04-26T04:20:05.220Z,11.57
2023-04-26T04:23:08.014Z,12.55
2023-04-26T04:26:12.702Z,11.80
2023-04-26T04:29:15.952Z,15.55
2023-04-26T04:32:18.765Z,14.65
2023-04-26T04:35:20.958Z,15.48
2023-04-26T04:38:24.300Z,15.52
2023-04-26T04:41:26.399Z,13.18
2023-04-26T04:44:28.516Z,20.33
2023-04-26T04:47:30.702Z,14.77
2023-04-26T04:50:33.975Z,19.73
2023-04-26T04:53:36.180Z,13.73
2023-04-26T04:56:38.343Z,16.65
2023-04-26T04:59:40.866Z,15.70
2023-04-26T05:02:43.980Z,16.52
2023-04-26T05:05:46.090Z,15.95
2023-04-26T05:08:48.096Z,14.30
2023-04-26T05:11:50.137Z,15.80
2023-04-26T05:14:52.132Z,14.55
2023-04-26T05:17:55.856Z,12.43
2023-04-26T05:20:58.649Z,13.75
2023-04-26T05:24:00.779Z,13.15
2023-04-26T05:27:04.627Z,15.68
2023-04-26T05:30:08.223Z,11.05
2023-04-26T05:33:11.106Z,11.60
2023-04-26T05:36:13.128Z,11.40
2023-04-26T05:39:15.925Z,12.30
2023-04-26T05:42:18.275Z,14.10
2023-04-26T05:45:20.288Z,9.27
2023-04-26T05:48:23.413Z,13.07
2023-04-26T05:51:25.634Z,10.82
2023-04-26T05:54:27.829Z,11.45
2023-04-26T05:57:30.138Z,17.27
2023-04-26T06:00:33.147Z,10.35
2023-04-26T06:03:35.512Z,11.07
2023-04-26T06:06:37.794Z,9.63
2023-04-26T06:09:40.330Z,8.10
2023-04-26T06:12:42.962Z,11.93
2023-04-26T06:15:45.396Z,8.20
2023-04-26T06:18:47.537Z,11.73
2023-04-26T06:21:49.561Z,10.73
2023-04-26T06:24:51.700Z,11.13
2023-04-26T06:27:54.037Z,8.45
2023-04-26T06:30:56.352Z,9.18
2023-04-26T06:33:59.157Z,10.88
2023-04-26T06:37:01.386Z,6.30
2023-04-26T06:40:03.769Z,7.70
2023-04-26T06:43:06.005Z,5.95
2023-04-26T06:46:08.163Z,10.10
2023-04-26T06:49:11.626Z,12.55
2023-04-26T06:52:13.841Z,9.10
2023-04-26T06:55:16.150Z,9.77
2023-04-26T06:58:18.205Z,7.20
2023-04-26T07:01:20.287Z,7.75
2023-04-26T07:04:22.591Z,6.25
2023-04-26T07:07:24.928Z,6.45
2023-04-26T07:10:27.856Z,9.30
2023-04-26T07:13:30.065Z,9.52
2023-04-26T07:16:32.386Z,5.70
2023-04-26T07:19:34.545Z,10.02
2023-04-26T07:22:36.596Z,6.82
2023-04-26T07:25:38.737Z,5.30
2023-04-26T07:28:40.854Z,6.03
2023-04-26T07:31:43.252Z,6.15
2023-04-26T07:34:46.116Z,5.22
2023-04-26T07:37:48.143Z,8.15
2023-04-26T07:40:50.791Z,8.63
2023-04-26T07:43:53.095Z,7.47
2023-04-26T07:46:56.008Z,4.20
2023-04-26T07:49:58.501Z,5.40
2023-04-26T07:53:00.596Z,9.23
2023-04-26T07:56:06.020Z,4.47
2023-04-26T07:59:08.518Z,4.95
2023-04-26T08:02:10.898Z,6.38
2023-04-26T08:05:14.214Z,7.78
2023-04-26T08:08:18.840Z,4.97
2023-04-26T08:11:21.894Z,4.50
2023-04-26T08:14:24.030Z,6.25
2023-04-26T08:17:26.119Z,3.17
2023-04-26T08:20:28.395Z,6.45
2023-04-26T08:23:35.947Z,6.60
2023-04-26T08:26:37.981Z,6.05
2023-04-26T08:29:40.267Z,4.80
2023-04-26T08:32:42.615Z,5.05
2023-04-26T08:35:44.848Z,6.03
2023-04-26T08:38:46.993Z,8.00
2023-04-26T08:41:54.375Z,5.93
2023-04-26T08:45:02.451Z,4.85
2023-04-26T08:48:10.441Z,4.65
2023-04-26T08:51:14.241Z,6.00
2023-04-26T08:54:18.265Z,5.60
2023-04-26T08:57:21.482Z,6.03
2023-04-26T09:00:24.275Z,6.32
2023-04-26T09:03:26.683Z,4.47
2023-04-26T09:06:29.297Z,5.15
2023-04-26T09:09:42.561Z,4.35
2023-04-26T09:12:44.901Z,3.47
2023-04-26T09:15:48.778Z,4.18
2023-04-26T09:18:57.276Z,4.53
2023-04-26T09:21:59.481Z,4.30
2023-04-26T09:25:05.847Z,4.72
2023-04-26T09:28:22.859Z,6.97
2023-04-26T09:31:40.176Z,6.47
2023-04-26T09:34:47.048Z,4.35
2023-04-26T09:38:01.373Z,5.15
2023-04-26T09:41:08.155Z,7.87
2023-04-26T09:44:23.533Z,6.03
2023-04-26T09:47:26.165Z,5.32
2023-04-26T09:50:31.129Z,9.15
2023-04-26T09:53:39.172Z,5.80
2023-04-26T09:56:41.254Z,7.00
2023-04-26T09:59:54.230Z,5.55
2023-04-26T10:02:57.704Z,4.63
2023-04-26T10:06:00.595Z,5.95
2023-04-26T10:09:05.291Z,4.60
2023-04-26T10:12:09.045Z,5.30
2023-04-26T10:15:12.161Z,5.32
2023-04-26T10:18:14.213Z,6.20
2023-04-26T10:21:27.203Z,5.10
2023-04-26T10:24:29.614Z,6.13
2023-04-26T10:27:43.952Z,5.38
2023-04-26T10:31:00.448Z,8.80
2023-04-26T10:34:21.733Z,6.55
2023-04-26T10:37:24.076Z,5.60
2023-04-26T10:40:29.247Z,5.15
2023-04-26T10:43:32.812Z,5.32
2023-04-26T10:46:39.965Z,6.88
2023-04-26T10:49:49.455Z,11.30
2023-04-26T10:53:03.229Z,3.67
2023-04-26T10:56:05.462Z,8.25
2023-04-26T11:02:17.490Z,7.90
2023-04-26T11:05:42.624Z,6.95
2023-04-26T11:08:44.861Z,5.10
2023-04-26T11:11:55.699Z,6.78
2023-04-26T11:15:01.138Z,5.53
2023-04-26T11:18:04.943Z,5.47
2023-04-26T11:21:08.196Z,4.97
2023-04-26T11:24:10.232Z,4.95
2023-04-26T11:27:12.479Z,7.57
2023-04-26T11:30:18.258Z,6.70
2023-04-26T11:33:24.608Z,5.70
2023-04-26T11:36:27.200Z,5.75
2023-04-26T11:39:30.971Z,4.90
2023-04-26T11:42:33.256Z,5.95
2023-04-26T11:45:36.865Z,7.93
2023-04-26T11:48:39.625Z,6.13
2023-04-26T11:51:42.241Z,5.70
2023-04-26T11:54:44.490Z,7.43
2023-04-26T11:57:46.590Z,6.47
2023-04-26T12:01:02.293Z,6.13
2023-04-26T12:04:10.606Z,7.88
2023-04-26T12:07:18.368Z,5.85
2023-04-26T12:10:24.040Z,5.70
2023-04-26T12:13:26.251Z,8.27
2023-04-26T12:16:28.405Z,8.57
2023-04-26T12:19:34.346Z,5.47
2023-04-26T12:22:36.548Z,5.00
2023-04-26T12:25:39.952Z,5.78
2023-04-26T12:28:42.300Z,7.97
2023-04-26T12:31:44.434Z,4.22
2023-04-26T12:34:46.664Z,6.20
2023-04-26T12:37:49.956Z,6.72
2023-04-26T12:40:52.622Z,3.67
2023-04-26T12:43:54.831Z,6.25
2023-04-26T12:46:56.968Z,11.02
2023-04-26T12:50:01.154Z,5.70
2023-04-26T12:53:03.401Z,6.95
2023-04-26T12:56:06.047Z,4.82
2023-04-26T12:59:08.308Z,6.65
2023-04-26T13:02:10.422Z,5.10
2023-04-26T13:05:13.345Z,7.15
2023-04-26T13:08:16.117Z,4.55
2023-04-26T13:11:18.400Z,4.95
2023-04-26T13:14:20.518Z,5.75
2023-04-26T13:17:25.576Z,4.75
2023-04-26T13:20:31.111Z,3.30
2023-04-26T13:23:33.465Z,4.55
2023-04-26T13:26:35.614Z,4.20
2023-04-26T13:29:37.780Z,9.15
2023-04-26T13:32:40.218Z,4.55
2023-04-26T13:35:42.904Z,5.85
2023-04-26T13:38:45.182Z,4.78
2023-04-26T13:41:47.270Z,5.32
2023-04-26T13:44:51.739Z,5.30
2023-04-26T13:47:53.910Z,5.43
2023-04-26T13:50:56.434Z,5.68
2023-04-26T13:53:58.853Z,6.82
2023-04-26T13:57:00.962Z,7.85
2023-04-26T14:00:04.156Z,5.72
2023-04-26T14:03:06.649Z,4.07
2023-04-26T14:06:09.372Z,5.90
2023-04-26T14:09:12.236Z,5.45
2023-04-26T14:12:14.705Z,5.25
2023-04-26T14:15:16.785Z,4.63
2023-04-26T14:18:19.370Z,9.57
2023-04-26T14:21:21.549Z,6.50
2023-04-26T14:24:23.630Z,6.20
2023-04-26T14:27:25.815Z,4.82
2023-04-26T14:30:29.010Z,4.00
2023-04-26T14:33:31.580Z,4.95
2023-04-26T14:36:33.782Z,6.22
2023-04-26T14:39:36.054Z,4.97
2023-04-26T14:42:38.316Z,4.20
2023-04-26T14:45:45.079Z,2.22
2023-04-26T14:48:47.514Z,5.30
2023-04-26T14:51:51.248Z,3.78
2023-04-26T14:54:55.129Z,6.25
2023-04-26T14:57:57.415Z,5.28
2023-04-26T15:01:00.555Z,3.75
2023-04-26T15:04:02.904Z,4.45
2023-04-26T15:07:05.094Z,3.65
2023-04-26T15:10:08.595Z,3.70
2023-04-26T15:13:11.443Z,4.88
2023-04-26T15:16:13.473Z,3.95
2023-04-26T15:19:16.752Z,3.63
2023-04-26T15:22:18.984Z,3.38
2023-04-26T15:25:21.570Z,3.22
2023-04-26T15:28:23.671Z,2.78
2023-04-26T15:31:25.703Z,2.83
2023-04-26T15:34:30.269Z,2.55
2023-04-26T15:37:32.240Z,4.53
2023-04-26T15:40:35.286Z,3.38
2023-04-26T15:43:39.133Z,3.05
2023-04-26T15:46:42.841Z,2.90
2023-04-26T15:49:45.067Z,2.95
2023-04-26T15:52:47.068Z,2.30
2023-04-26T15:55:49.115Z,3.13
2023-04-26T15:58:51.220Z,2.90
2023-04-26T16:01:53.409Z,3.00
2023-04-26T16:04:56.402Z,4.32
2023-04-26T16:07:59.770Z,4.20
2023-04-26T16:11:03.051Z,2.72
2023-04-26T16:14:05.104Z,3.90
2023-04-26T16:17:07.157Z,3.83
2023-04-26T16:20:10.277Z,3.20
2023-04-26T16:23:13.594Z,4.20
2023-04-26T16:26:15.651Z,4.22
2023-04-26T16:29:17.908Z,3.95
2023-04-26T16:32:21.265Z,3.42
2023-04-26T16:35:24.053Z,5.75
2023-04-26T16:38:26.218Z,4.72
2023-04-26T16:41:28.362Z,3.30
2023-04-26T16:44:31.121Z,4.43
2023-04-26T16:47:34.331Z,4.43
2023-04-26T16:50:37.396Z,4.68
2023-04-26T16:53:39.589Z,3.10
2023-04-26T16:56:41.651Z,2.95
2023-04-26T16:59:43.762Z,5.38
2023-04-26T17:02:48.605Z,4.13
2023-04-26T17:05:51.007Z,3.33
2023-04-26T17:08:53.655Z,3.15
2023-04-26T17:11:56.397Z,7.47
2023-04-26T17:14:58.564Z,3.53
2023-04-26T17:18:02.165Z,5.20
2023-04-26T17:21:05.485Z,5.28
2023-04-26T17:24:08.285Z,4.35
2023-04-26T17:27:10.428Z,5.47
2023-04-26T17:30:13.294Z,4.30
2023-04-26T17:33:17.598Z,3.70
2023-04-26T17:36:20.325Z,4.70
2023-04-26T17:39:22.640Z,3.03
2023-04-26T17:42:25.338Z,4.93
2023-04-26T17:45:27.810Z,3.90
2023-04-26T17:48:29.965Z,3.78
2023-04-26T17:51:36.257Z,3.45
2023-04-26T17:54:39.597Z,5.57
2023-04-26T17:57:41.715Z,4.25
2023-04-26T18:00:45.075Z,5.20
2023-04-26T18:03:47.616Z,4.78
2023-04-26T18:06:49.923Z,5.60
2023-04-26T18:09:54.353Z,4.60
2023-04-26T18:12:57.112Z,5.55
2023-04-26T18:15:59.468Z,4.97
2023-04-26T18:19:01.664Z,5.25
2023-04-26T18:22:03.857Z,7.38
2023-04-26T18:25:06.729Z,6.88
2023-04-26T18:28:10.572Z,6.05
2023-04-26T18:31:21.640Z,4.43
2023-04-26T18:34:24.664Z,4.95
2023-04-26T18:37:26.989Z,5.22
2023-04-26T18:40:29.679Z,4.07
2023-04-26T18:43:32.067Z,5.05
2023-04-26T18:46:34.632Z,5.97
2023-04-26T18:49:37.150Z,5.22
2023-04-26T18:52:41.122Z,5.90
2023-04-26T18:55:43.664Z,4.78
2023-04-26T18:58:46.702Z,4.97
2023-04-26T19:01:52.437Z,7.22
2023-04-26T19:04:55.758Z,4.93
2023-04-26T19:07:58.658Z,9.13
2023-04-26T19:11:01.855Z,5.07
2023-04-26T19:14:04.858Z,6.43
2023-04-26T19:17:07.804Z,6.05
2023-04-26T19:20:14.129Z,5.57
2023-04-26T19:23:16.853Z,5.57
2023-04-26T19:26:19.518Z,7.15
2023-04-26T19:29:22.336Z,7.22
2023-04-26T19:32:26.411Z,6.90
2023-04-26T19:35:29.397Z,10.05
2023-04-26T19:38:32.032Z,9.07
2023-04-26T19:41:37.282Z,18.55
2023-04-26T19:44:40.592Z,14.90
2023-04-26T19:47:43.731Z,15.00
2023-04-26T19:50:46.981Z,14.05
2023-04-26T19:53:49.790Z,12.13
2023-04-26T19:56:54.185Z,13.75
2023-04-26T19:59:57.588Z,14.70
2023-04-26T20:03:00.909Z,10.82
2023-04-26T20:06:04.204Z,11.23
2023-04-26T20:09:07.059Z,9.35
2023-04-26T20:12:11.024Z,9.48
2023-04-26T20:15:16.684Z,11.10
2023-04-26T20:18:19.648Z,9.80
2023-04-26T20:21:23.983Z,7.22
2023-04-26T20:24:29.855Z,8.38
2023-04-26T20:27:32.560Z,9.77
2023-04-26T20:30:36.344Z,7.05
2023-04-26T20:33:39.078Z,8.57
2023-04-26T20:36:41.965Z,8.32
2023-04-26T20:39:44.717Z,8.57
2023-04-26T20:42:47.231Z,7.47
2023-04-26T20:45:51.184Z,7.10
2023-04-26T20:48:53.983Z,8.95
2023-04-26T20:51:56.358Z,10.38
2023-04-26T20:54:58.421Z,7.40
2023-04-26T20:58:00.535Z,8.73
2023-04-26T21:01:07.211Z,10.75
2023-04-26T21:04:10.126Z,8.73
2023-04-26T21:07:12.456Z,9.13
2023-04-26T21:10:17.619Z,11.07
2023-04-26T21:13:20.441Z,9.52
2023-04-26T21:16:22.582Z,10.40
2023-04-26T21:19:24.872Z,12.50
2023-04-26T21:22:27.288Z,8.60
2023-04-26T21:25:29.303Z,7.65
2023-04-26T21:28:31.932Z,10.20
2023-04-26T21:31:34.240Z,9.25
2023-04-26T21:34:37.323Z,7.15
2023-04-26T21:37:39.650Z,14.05
2023-04-26T21:40:41.966Z,8.55
2023-04-26T21:43:44.093Z,10.15
2023-04-26T21:46:46.236Z,8.50
2023-04-26T21:49:48.534Z,10.68
2023-04-26T21:52:50.888Z,9.68
2023-04-26T21:55:53.827Z,11.73
2023-04-26T21:58:56.035Z,11.98
2023-04-26T22:01:58.347Z,12.98
2023-04-26T22:05:00.545Z,14.65
2023-04-26T22:08:02.635Z,15.07
2023-04-26T22:11:05.032Z,10.65
2023-04-26T22:14:07.406Z,12.15
2023-04-26T22:17:09.438Z,11.35
2023-04-26T22:20:12.425Z,13.27
2023-04-26T22:23:14.634Z,9.13
2023-04-26T22:26:16.660Z,11.60
2023-04-26T22:29:18.990Z,9.15
2023-04-26T22:32:21.440Z,9.98
2023-04-26T22:35:24.585Z,10.60
2023-04-26T22:38:26.867Z,8.52
2023-04-26T22:41:29.073Z,8.82
2023-04-26T22:44:31.421Z,9.77
2023-04-26T22:47:33.633Z,7.22
2023-04-26T22:50:36.053Z,9.73
2023-04-26T22:53:38.828Z,11.02
2023-04-26T22:56:40.911Z,10.48
2023-04-26T22:59:43.217Z,11.02
2023-04-26T23:02:45.591Z,9.15
2023-04-26T23:05:47.802Z,10.57
2023-04-26T23:08:49.941Z,11.55
2023-04-26T23:11:52.003Z,9.15
2023-04-26T23:14:58.309Z,8.30
2023-04-26T23:18:00.910Z,11.57
2023-04-26T23:21:03.188Z,8.68
2023-04-26T23:24:06.103Z,11.00
2023-04-26T23:27:08.132Z,13.60
2023-04-26T23:30:10.840Z,12.35
2023-04-26T23:33:13.466Z,12.30
2023-04-26T23:36:15.874Z,9.80
2023-04-26T23:39:18.214Z,10.07
2023-04-26T23:42:20.294Z,9.75
2023-04-26T23:45:23.845Z,9.63
2023-04-26T23:48:26.145Z,8.45
2023-04-26T23:51:29.765Z,9.98
2023-04-26T23:54:32.346Z,8.77
2023-04-26T23:57:34.863Z,9.45
